createdAt,value
2023-02-21T00:00:33.978Z,16.83
2023-02-21T00:03:19.800Z,20.73
2023-02-21T00:06:07.153Z,24.55
2023-02-21T00:08:52.460Z,22.35
2023-02-21T00:11:37.812Z,21.13
2023-02-21T00:14:23.282Z,20.60
2023-02-21T00:17:08.772Z,22.58
2023-02-21T00:19:54.154Z,17.45
2023-02-21T00:22:39.657Z,19.42
2023-02-21T00:25:25.172Z,22.27
2023-02-21T00:28:10.526Z,21.85
2023-02-21T00:30:56.187Z,17.92
2023-02-21T00:33:41.739Z,21.48
2023-02-21T00:36:27.479Z,18.15
2023-02-21T00:39:12.917Z,16.73
2023-02-21T00:41:58.410Z,15.07
2023-02-21T00:44:43.730Z,12.65
2023-02-21T00:47:29.052Z,14.38
2023-02-21T00:50:14.456Z,15.60
2023-02-21T00:52:59.693Z,14.38
2023-02-21T00:55:45.239Z,17.00
2023-02-21T00:58:30.608Z,17.40
2023-02-21T01:01:16.760Z,17.35
2023-02-21T01:04:02.414Z,19.00
2023-02-21T01:06:48.231Z,14.10
2023-02-21T01:09:34.664Z,16.02
2023-02-21T01:12:20.248Z,16.45
2023-02-21T01:15:05.579Z,15.48
2023-02-21T01:17:51.016Z,17.80
2023-02-21T01:20:36.315Z,13.75
2023-02-21T01:23:23.614Z,16.90
2023-02-21T01:26:09.186Z,18.63
2023-02-21T01:28:54.585Z,15.52
2023-02-21T01:31:41.051Z,17.77
2023-02-21T01:34:26.947Z,19.50
2023-02-21T01:37:12.347Z,18.95
2023-02-21T01:39:58.235Z,14.32
2023-02-21T01:42:45.147Z,15.70
2023-02-21T01:46:02.621Z,15.18
2023-02-21T01:48:49.705Z,13.40
2023-02-21T01:51:38.196Z,10.20
2023-02-21T01:54:25.971Z,13.13
2023-02-21T01:57:13.594Z,11.18
2023-02-21T01:59:59.579Z,10.82
2023-02-21T02:02:57.079Z,11.63
2023-02-21T02:05:45.657Z,10.15
2023-02-21T02:08:32.214Z,12.13
2023-02-21T02:11:29.538Z,11.40
2023-02-21T02:14:23.871Z,11.10
2023-02-21T02:17:05.535Z,10.55
2023-02-21T02:20:06.714Z,9.32
2023-02-21T02:23:00.001Z,10.05
2023-02-21T02:26:04.888Z,11.30
2023-02-21T02:28:43.762Z,13.10
2023-02-21T02:31:32.292Z,12.07
2023-02-21T02:34:24.652Z,11.07
2023-02-21T02:37:06.286Z,10.45
2023-02-21T02:39:51.046Z,9.55
2023-02-21T02:42:26.610Z,11.18
2023-02-21T02:45:17.000Z,11.48
2023-02-21T02:47:46.923Z,10.93
2023-02-21T02:50:15.043Z,8.90
2023-02-21T02:52:53.741Z,10.32
2023-02-21T02:55:22.615Z,10.88
2023-02-21T02:57:51.237Z,11.60
2023-02-21T03:00:20.164Z,10.07
2023-02-21T03:02:59.363Z,11.27
2023-02-21T03:05:55.858Z,11.55
2023-02-21T03:08:27.883Z,11.63
2023-02-21T03:11:17.132Z,11.27
2023-02-21T03:13:53.667Z,11.15
2023-02-21T03:16:43.980Z,12.27
2023-02-21T03:19:26.398Z,11.40
2023-02-21T03:22:02.771Z,11.75
2023-02-21T03:24:31.162Z,9.75
2023-02-21T03:27:03.561Z,10.73
2023-02-21T03:29:51.436Z,9.35
2023-02-21T03:32:26.585Z,10.13
2023-02-21T03:34:54.929Z,10.23
2023-02-21T03:37:36.910Z,10.63
2023-02-21T03:40:13.809Z,9.98
2023-02-21T03:42:46.968Z,10.45
2023-02-21T03:45:16.888Z,11.52
2023-02-21T03:47:48.733Z,10.23
2023-02-21T03:50:15.937Z,10.77
2023-02-21T03:52:44.698Z,9.57
2023-02-21T03:55:11.809Z,10.35
2023-02-21T03:57:39.741Z,10.00
2023-02-21T04:00:07.321Z,11.32
2023-02-21T04:02:42.831Z,8.93
2023-02-21T04:05:17.014Z,8.57
2023-02-21T04:07:44.247Z,8.88
2023-02-21T04:10:11.703Z,9.25
2023-02-21T04:12:44.175Z,8.88
2023-02-21T04:15:12.036Z,9.93
2023-02-21T04:17:39.646Z,11.27
2023-02-21T04:20:09.009Z,8.25
2023-02-21T04:22:41.444Z,8.27
2023-02-21T04:25:08.968Z,9.38
2023-02-21T04:27:42.160Z,8.50
2023-02-21T04:30:10.569Z,9.50
2023-02-21T04:32:37.677Z,9.15
2023-02-21T04:35:09.693Z,11.50
2023-02-21T04:37:37.296Z,9.20
2023-02-21T04:40:04.622Z,9.35
2023-02-21T04:42:34.650Z,8.07
2023-02-21T04:45:03.218Z,8.13
2023-02-21T04:47:30.500Z,9.15
2023-02-21T04:49:57.493Z,8.43
2023-02-21T04:52:24.720Z,8.15
2023-02-21T04:54:51.851Z,7.90
2023-02-21T04:57:18.883Z,8.15
2023-02-21T04:59:45.825Z,8.18
2023-02-21T05:02:12.904Z,8.05
2023-02-21T05:04:39.901Z,7.85
2023-02-21T05:07:06.901Z,7.95
2023-02-21T05:09:33.860Z,7.82
2023-02-21T05:12:00.809Z,7.13
2023-02-21T05:14:27.797Z,6.07
2023-02-21T05:16:54.842Z,6.88
2023-02-21T05:19:27.497Z,7.22
2023-02-21T05:21:59.475Z,9.23
2023-02-21T05:24:30.782Z,6.50
2023-02-21T05:26:58.160Z,9.65
2023-02-21T05:29:25.568Z,6.82
2023-02-21T05:31:52.600Z,6.63
2023-02-21T05:34:19.760Z,7.60
2023-02-21T05:36:47.003Z,5.95
2023-02-21T05:39:14.052Z,6.72
2023-02-21T05:41:50.172Z,6.25
2023-02-21T05:44:18.178Z,7.97
2023-02-21T05:46:46.056Z,5.95
2023-02-21T05:49:13.187Z,5.70
2023-02-21T05:51:43.359Z,5.50
2023-02-21T05:54:15.334Z,6.88
2023-02-21T05:56:43.723Z,5.93
2023-02-21T05:59:11.073Z,6.78
2023-02-21T06:01:38.171Z,5.45
2023-02-21T06:04:05.519Z,6.63
2023-02-21T06:06:32.505Z,8.40
2023-02-21T06:08:59.600Z,7.40
2023-02-21T06:11:33.354Z,6.93
2023-02-21T06:14:03.550Z,6.28
2023-02-21T06:16:35.409Z,6.25
2023-02-21T06:19:03.208Z,5.30
2023-02-21T06:21:30.376Z,5.95
2023-02-21T06:23:57.477Z,5.82
2023-02-21T06:26:24.459Z,5.05
2023-02-21T06:28:52.363Z,5.65
2023-02-21T06:31:20.261Z,5.68
2023-02-21T06:33:48.317Z,5.07
2023-02-21T06:36:20.938Z,4.60
2023-02-21T06:38:53.081Z,5.60
2023-02-21T06:41:24.634Z,5.32
2023-02-21T06:43:53.170Z,7.15
2023-02-21T06:46:22.661Z,5.50
2023-02-21T06:48:50.237Z,6.65
2023-02-21T06:51:17.665Z,7.00
2023-02-21T06:53:48.659Z,6.43
2023-02-21T06:56:15.656Z,8.73
2023-02-21T06:58:42.699Z,8.73
2023-02-21T07:01:09.774Z,8.85
2023-02-21T07:03:40.516Z,11.15
2023-02-21T07:06:07.687Z,10.80
2023-02-21T07:08:34.722Z,12.60
2023-02-21T07:11:01.902Z,10.65
2023-02-21T07:13:28.821Z,12.90
2023-02-21T07:15:55.822Z,13.27
2023-02-21T07:18:22.848Z,12.95
2023-02-21T07:20:49.762Z,11.40
2023-02-21T07:23:16.826Z,12.88
2023-02-21T07:25:43.864Z,12.57
2023-02-21T07:28:11.602Z,14.13
2023-02-21T07:30:38.630Z,11.68
2023-02-21T07:33:05.595Z,13.88
2023-02-21T07:35:32.547Z,12.07
2023-02-21T07:37:59.496Z,14.13
2023-02-21T07:40:26.447Z,13.43
2023-02-21T07:42:53.450Z,14.80
2023-02-21T07:45:20.510Z,14.52
2023-02-21T07:47:48.162Z,17.38
2023-02-21T07:50:16.608Z,19.80
2023-02-21T07:52:43.703Z,18.40
2023-02-21T07:55:12.473Z,11.98
2023-02-21T07:57:39.654Z,25.40
2023-02-21T08:00:07.123Z,19.80
2023-02-21T08:02:40.433Z,15.48
2023-02-21T08:05:08.857Z,21.40
2023-02-21T08:07:35.860Z,21.42
2023-02-21T08:10:02.900Z,17.08
2023-02-21T08:12:29.802Z,14.95
2023-02-21T08:14:56.844Z,17.50
2023-02-21T08:17:23.744Z,17.33
2023-02-21T08:19:50.819Z,18.67
2023-02-21T08:22:19.363Z,19.17
2023-02-21T08:24:46.395Z,14.98
2023-02-21T08:27:13.390Z,16.63
2023-02-21T08:29:40.714Z,16.73
2023-02-21T08:32:07.885Z,15.45
2023-02-21T08:34:35.161Z,15.95
2023-02-21T08:37:02.183Z,14.55
2023-02-21T08:39:31.943Z,13.75
2023-02-21T08:41:58.958Z,14.98
2023-02-21T08:44:25.974Z,15.55
2023-02-21T08:46:52.981Z,18.33
2023-02-21T08:49:19.977Z,18.10
2023-02-21T08:51:47.659Z,13.68
2023-02-21T08:54:14.649Z,14.48
2023-02-21T08:56:41.577Z,17.33
2023-02-21T08:59:09.472Z,12.95
2023-02-21T09:01:36.455Z,12.40
2023-02-21T09:04:04.632Z,13.05
2023-02-21T09:06:32.351Z,12.80
2023-02-21T09:08:59.333Z,14.80
2023-02-21T09:11:26.404Z,16.23
2023-02-21T09:13:55.319Z,52.60
2023-02-21T09:16:23.863Z,17.35
2023-02-21T09:18:56.911Z,15.15
2023-02-21T09:21:23.944Z,12.25
2023-02-21T09:23:55.327Z,14.68
2023-02-21T09:26:24.285Z,15.23
2023-02-21T09:28:54.551Z,15.57
2023-02-21T09:31:21.922Z,14.13
2023-02-21T09:33:48.866Z,13.88
2023-02-21T09:36:16.563Z,12.73
2023-02-21T09:38:43.516Z,10.77
2023-02-21T09:41:14.194Z,13.27
2023-02-21T09:43:48.314Z,13.65
2023-02-21T09:46:40.216Z,13.88
2023-02-21T09:49:15.812Z,12.57
2023-02-21T09:51:43.918Z,14.85
2023-02-21T09:54:28.438Z,27.35
2023-02-21T09:56:58.607Z,16.45
2023-02-21T09:59:26.388Z,18.15
2023-02-21T10:02:11.146Z,17.17
2023-02-21T10:04:59.713Z,18.98
2023-02-21T10:08:04.162Z,16.00
2023-02-21T10:10:40.197Z,15.38
2023-02-21T10:13:14.129Z,18.45
2023-02-21T10:15:50.988Z,15.20
2023-02-21T10:18:32.923Z,15.68
2023-02-21T10:21:18.044Z,20.25
2023-02-21T10:23:47.808Z,19.95
2023-02-21T10:26:30.048Z,15.88
2023-02-21T10:28:58.974Z,18.35
2023-02-21T10:31:37.896Z,21.30
2023-02-21T10:34:07.748Z,18.48
2023-02-21T10:36:35.244Z,22.02
2023-02-21T10:39:05.111Z,18.20
2023-02-21T10:41:37.766Z,17.00
2023-02-21T10:44:13.997Z,19.60
2023-02-21T10:46:47.621Z,17.77
2023-02-21T10:49:28.976Z,18.83
2023-02-21T10:52:14.278Z,19.35
2023-02-21T10:54:41.273Z,26.27
2023-02-21T10:57:11.674Z,31.92
2023-02-21T10:59:43.086Z,33.72
2023-02-21T11:02:37.472Z,36.35
2023-02-21T11:05:23.828Z,31.95
2023-02-21T11:08:11.859Z,26.63
2023-02-21T11:10:42.370Z,29.67
2023-02-21T11:13:15.014Z,25.45
2023-02-21T11:15:46.235Z,27.90
2023-02-21T11:18:15.213Z,25.63
2023-02-21T11:20:44.954Z,24.83
2023-02-21T11:23:20.995Z,24.08
2023-02-21T11:25:50.153Z,23.48
2023-02-21T11:28:23.572Z,23.83
2023-02-21T11:31:02.740Z,20.50
2023-02-21T11:33:30.986Z,21.95
2023-02-21T11:36:15.625Z,23.35
2023-02-21T11:38:46.164Z,19.10
2023-02-21T11:41:17.495Z,19.80
2023-02-21T11:43:50.733Z,21.33
2023-02-21T11:46:45.850Z,20.90
2023-02-21T11:49:38.031Z,20.38
2023-02-21T11:52:15.855Z,17.27
2023-02-21T11:54:44.296Z,24.80
2023-02-21T11:57:36.244Z,17.67
2023-02-21T12:00:26.441Z,24.92
2023-02-21T12:03:15.063Z,20.95
2023-02-21T12:06:20.184Z,21.08
2023-02-21T12:09:10.811Z,20.67
2023-02-21T12:12:04.467Z,20.63
2023-02-21T12:14:52.484Z,17.73
2023-02-21T12:17:52.122Z,19.23
2023-02-21T12:20:50.646Z,17.05
2023-02-21T12:23:34.236Z,19.42
2023-02-21T12:26:22.543Z,17.05
2023-02-21T12:29:37.084Z,21.52
2023-02-21T12:32:27.518Z,18.88
2023-02-21T12:35:15.791Z,17.17
2023-02-21T12:38:05.363Z,16.73
2023-02-21T12:41:13.612Z,17.25
2023-02-21T12:43:49.854Z,23.00
2023-02-21T12:46:17.101Z,16.52
2023-02-21T12:48:44.052Z,14.88
2023-02-21T12:51:17.026Z,13.35
2023-02-21T12:53:48.235Z,17.48
2023-02-21T12:56:25.161Z,14.65
2023-02-21T12:59:07.887Z,14.25
2023-02-21T13:02:07.289Z,17.75
2023-02-21T13:04:49.044Z,14.38
2023-02-21T13:07:34.929Z,16.17
2023-02-21T13:10:16.916Z,10.57
2023-02-21T13:13:19.412Z,13.25
2023-02-21T13:15:49.318Z,16.13
2023-02-21T13:18:25.171Z,16.25
2023-02-21T13:21:14.492Z,10.93
2023-02-21T13:24:02.440Z,9.32
2023-02-21T13:26:38.490Z,13.63
2023-02-21T13:29:31.124Z,12.10
2023-02-21T13:32:07.455Z,12.65
2023-02-21T13:34:45.269Z,12.82
2023-02-21T13:37:22.586Z,16.83
2023-02-21T13:39:58.868Z,12.82
2023-02-21T13:42:29.448Z,14.07
2023-02-21T13:45:17.933Z,13.82
2023-02-21T13:48:11.086Z,16.17
2023-02-21T13:50:38.498Z,17.08
2023-02-21T13:53:57.851Z,12.82
2023-02-21T13:56:45.411Z,11.82
2023-02-21T13:59:36.070Z,12.77
2023-02-21T14:02:30.860Z,13.25
2023-02-21T14:04:57.859Z,11.20
2023-02-21T14:07:47.450Z,10.95
2023-02-21T14:10:31.921Z,9.13
2023-02-21T14:13:04.253Z,13.25
2023-02-21T14:15:47.199Z,10.85
2023-02-21T14:18:21.737Z,12.65
2023-02-21T14:20:52.664Z,16.58
2023-02-21T14:23:22.969Z,11.85
2023-02-21T14:26:37.052Z,14.05
2023-02-21T14:29:15.281Z,11.30
2023-02-21T14:31:54.077Z,13.38
2023-02-21T14:34:47.393Z,10.70
2023-02-21T14:37:36.404Z,10.13
2023-02-21T14:40:26.847Z,9.95
2023-02-21T14:43:02.199Z,13.23
2023-02-21T14:46:01.027Z,12.82
2023-02-21T14:48:43.583Z,13.43
2023-02-21T14:51:25.717Z,13.38
2023-02-21T14:54:11.528Z,12.07
2023-02-21T14:56:51.681Z,12.15
2023-02-21T14:59:27.634Z,13.73
2023-02-21T15:02:17.330Z,11.55
2023-02-21T15:05:04.438Z,13.68
2023-02-21T15:07:37.430Z,11.15
2023-02-21T15:10:10.996Z,15.70
2023-02-21T15:12:43.740Z,12.02
2023-02-21T15:15:18.642Z,15.40
2023-02-21T15:17:55.578Z,10.10
2023-02-21T15:20:22.703Z,14.18
2023-02-21T15:23:15.672Z,11.90
2023-02-21T15:25:44.772Z,17.90
2023-02-21T15:28:39.418Z,10.30
2023-02-21T15:31:09.463Z,8.73
2023-02-21T15:33:41.468Z,9.90
2023-02-21T15:36:20.234Z,7.13
2023-02-21T15:38:52.347Z,13.43
2023-02-21T15:41:39.417Z,11.13
2023-02-21T15:44:06.723Z,14.10
2023-02-21T15:46:54.578Z,10.82
2023-02-21T15:49:27.630Z,14.85
2023-02-21T15:51:54.907Z,15.13
2023-02-21T15:54:32.375Z,15.80
2023-02-21T15:57:24.445Z,13.90
2023-02-21T16:00:18.686Z,14.85
2023-02-21T16:02:45.837Z,16.67
2023-02-21T16:05:28.695Z,15.13
2023-02-21T16:08:02.122Z,10.90
2023-02-21T16:10:31.289Z,14.45
2023-02-21T16:13:01.503Z,14.70
2023-02-21T16:15:32.946Z,12.55
2023-02-21T16:18:03.750Z,11.02
2023-02-21T16:20:37.039Z,12.50
2023-02-21T16:23:31.744Z,13.82
2023-02-21T16:26:12.345Z,15.07
2023-02-21T16:28:41.183Z,10.85
2023-02-21T16:31:15.469Z,9.90
2023-02-21T16:33:42.833Z,12.70
2023-02-21T16:36:20.387Z,13.20
2023-02-21T16:38:47.403Z,17.23
2023-02-21T16:41:16.485Z,17.90
2023-02-21T16:43:43.539Z,14.20
2023-02-21T16:46:10.601Z,13.85
2023-02-21T16:48:46.783Z,13.23
2023-02-21T16:51:14.695Z,17.63
2023-02-21T16:53:42.245Z,13.60
2023-02-21T16:56:09.398Z,12.60
2023-02-21T16:58:40.619Z,13.55
2023-02-21T17:01:17.892Z,13.07
2023-02-21T17:03:45.571Z,13.88
2023-02-21T17:06:23.412Z,14.18
2023-02-21T17:08:51.859Z,14.93
2023-02-21T17:11:19.228Z,13.45
2023-02-21T17:13:47.048Z,13.13
2023-02-21T17:16:14.979Z,14.60
2023-02-21T17:18:44.693Z,15.90
2023-02-21T17:21:11.970Z,15.00
2023-02-21T17:23:39.068Z,24.55
2023-02-21T17:26:05.985Z,17.35
2023-02-21T17:28:34.538Z,23.30
2023-02-21T17:31:01.479Z,16.95
2023-02-21T17:33:28.483Z,22.05
2023-02-21T17:35:55.477Z,21.15
2023-02-21T17:38:22.649Z,15.98
2023-02-21T17:40:49.725Z,20.23
2023-02-21T17:43:16.946Z,20.77
2023-02-21T17:45:46.077Z,16.92
2023-02-21T17:48:13.139Z,25.80
2023-02-21T17:50:40.205Z,20.58
2023-02-21T17:53:08.721Z,17.35
2023-02-21T17:55:35.781Z,17.55
2023-02-21T17:58:02.754Z,23.08
2023-02-21T18:00:33.905Z,17.48
2023-02-21T18:03:04.197Z,17.98
2023-02-21T18:05:31.895Z,23.88
2023-02-21T18:08:01.942Z,22.45
2023-02-21T18:10:29.073Z,18.17
2023-02-21T18:12:56.391Z,18.05
2023-02-21T18:15:27.475Z,21.38
2023-02-21T18:17:54.837Z,22.92
2023-02-21T18:20:21.959Z,21.58
2023-02-21T18:22:49.157Z,20.00
2023-02-21T18:25:18.296Z,21.42
2023-02-21T18:27:45.552Z,20.00
2023-02-21T18:30:12.915Z,23.60
2023-02-21T18:32:41.178Z,24.45
2023-02-21T18:35:08.315Z,22.75
2023-02-21T18:37:35.805Z,23.33
2023-02-21T18:40:02.856Z,23.70
2023-02-21T18:42:30.042Z,22.52
2023-02-21T18:44:57.882Z,24.88
2023-02-21T18:47:27.021Z,29.13
2023-02-21T18:49:56.375Z,24.05
2023-02-21T18:52:23.512Z,26.98
2023-02-21T18:54:51.283Z,21.98
2023-02-21T18:57:20.511Z,26.42
2023-02-21T18:59:47.852Z,21.20
2023-02-21T19:02:19.607Z,25.48
2023-02-21T19:04:46.853Z,20.77
2023-02-21T19:07:16.881Z,25.20
2023-02-21T19:09:47.155Z,27.30
2023-02-21T19:12:14.585Z,23.55
2023-02-21T19:14:41.790Z,23.40
2023-02-21T19:17:09.407Z,24.40
2023-02-21T19:19:37.104Z,24.08
2023-02-21T19:22:04.967Z,25.92
2023-02-21T19:24:31.916Z,23.33
2023-02-21T19:26:59.091Z,25.48
2023-02-21T19:29:26.153Z,25.75
2023-02-21T19:31:54.209Z,25.17
2023-02-21T19:34:21.250Z,24.63
2023-02-21T19:36:49.341Z,23.52
2023-02-21T19:39:16.633Z,28.50
2023-02-21T19:41:44.397Z,30.48
2023-02-21T19:44:12.407Z,31.70
2023-02-21T19:46:39.441Z,35.15
2023-02-21T19:49:17.618Z,36.50
2023-02-21T19:51:46.286Z,40.05
2023-02-21T19:54:14.383Z,33.58
2023-02-21T19:56:41.581Z,32.20
2023-02-21T19:59:08.708Z,31.48
2023-02-21T20:01:35.917Z,36.35
2023-02-21T20:04:03.750Z,35.35
2023-02-21T20:06:35.288Z,39.22
2023-02-21T20:09:07.594Z,35.50
2023-02-21T20:11:35.739Z,35.45
2023-02-21T20:14:02.937Z,42.55
2023-02-21T20:16:29.941Z,44.08
2023-02-21T20:18:57.486Z,40.03
2023-02-21T20:21:30.911Z,42.38
2023-02-21T20:23:58.808Z,49.05
2023-02-21T20:26:26.691Z,46.03
2023-02-21T20:28:55.158Z,45.20
2023-02-21T20:31:26.084Z,45.03
2023-02-21T20:33:53.238Z,52.70
2023-02-21T20:36:28.649Z,51.97
2023-02-21T20:38:55.604Z,52.30
2023-02-21T20:41:22.641Z,44.10
2023-02-21T20:43:49.599Z,53.08
2023-02-21T20:46:22.234Z,48.05
2023-02-21T20:48:50.718Z,47.47
2023-02-21T20:51:26.624Z,47.15
2023-02-21T20:53:53.598Z,50.42
2023-02-21T20:56:20.630Z,49.13
2023-02-21T20:58:47.668Z,46.83
2023-02-21T21:01:15.125Z,40.58
2023-02-21T21:03:42.369Z,39.72
2023-02-21T21:06:12.333Z,36.38
2023-02-21T21:08:39.439Z,42.00
2023-02-21T21:11:08.859Z,38.25
2023-02-21T21:13:36.638Z,41.70
2023-02-21T21:16:05.229Z,35.88
2023-02-21T21:18:32.317Z,36.50
2023-02-21T21:20:59.417Z,33.53
2023-02-21T21:23:26.361Z,30.75
2023-02-21T21:25:53.438Z,39.72
2023-02-21T21:28:20.601Z,37.20
2023-02-21T21:30:47.819Z,37.60
2023-02-21T21:33:19.444Z,33.97
2023-02-21T21:35:48.847Z,33.78
2023-02-21T21:38:18.753Z,29.65
2023-02-21T21:40:47.862Z,29.40
2023-02-21T21:43:15.273Z,32.58
2023-02-21T21:45:44.365Z,34.80
2023-02-21T21:48:13.513Z,28.80
2023-02-21T21:50:41.962Z,27.58
2023-02-21T21:53:10.160Z,29.40
2023-02-21T21:55:38.868Z,29.25
2023-02-21T21:58:12.462Z,31.08
2023-02-21T22:00:42.195Z,29.00
2023-02-21T22:03:14.457Z,27.88
2023-02-21T22:05:45.820Z,27.58
2023-02-21T22:08:17.468Z,27.38
2023-02-21T22:10:48.543Z,30.02
2023-02-21T22:13:20.676Z,28.83
2023-02-21T22:15:50.824Z,29.15
2023-02-21T22:18:20.307Z,27.02
2023-02-21T22:20:50.118Z,28.92
2023-02-21T22:23:21.448Z,28.52
2023-02-21T22:25:51.905Z,29.13
2023-02-21T22:28:19.130Z,28.50
2023-02-21T22:30:46.287Z,28.10
2023-02-21T22:33:17.956Z,27.73
2023-02-21T22:35:45.555Z,33.40
2023-02-21T22:38:15.734Z,26.10
2023-02-21T22:40:43.897Z,25.23
2023-02-21T22:43:11.113Z,26.00
2023-02-21T22:45:38.781Z,25.95
2023-02-21T22:48:07.889Z,24.38
2023-02-21T22:50:37.570Z,25.33
2023-02-21T22:53:15.659Z,25.27
2023-02-21T22:55:44.035Z,24.25
2023-02-21T22:58:14.016Z,22.83
2023-02-21T23:00:41.227Z,26.70
2023-02-21T23:03:16.040Z,25.38
2023-02-21T23:05:52.676Z,26.20
2023-02-21T23:08:23.057Z,27.77
2023-02-21T23:10:50.360Z,22.73
2023-02-21T23:13:20.863Z,24.10
2023-02-21T23:15:48.466Z,23.70
2023-02-21T23:18:20.548Z,23.10
2023-02-21T23:20:53.511Z,24.95
2023-02-21T23:23:27.096Z,23.95
2023-02-21T23:25:58.869Z,22.38
2023-02-21T23:28:28.881Z,24.17
2023-02-21T23:30:58.142Z,22.60
2023-02-21T23:33:30.977Z,25.60
2023-02-21T23:35:58.350Z,22.30
2023-02-21T23:38:28.161Z,23.75
2023-02-21T23:40:57.981Z,24.10
2023-02-21T23:43:29.458Z,24.02
2023-02-21T23:45:58.229Z,23.50
2023-02-21T23:48:26.583Z,22.35
2023-02-21T23:50:57.765Z,23.35
2023-02-21T23:53:26.935Z,21.52
2023-02-21T23:55:57.703Z,22.33
2023-02-21T23:58:27.661Z,22.40
